Terminal Aerodrome Forecast
Issued by NWS

Home | Current Version | Previous Version | Text Only | Print | Product List | Glossary On
Versions: 1 2 3 4 5 6 7 8 9 10 11 12 13 14 15 16 17 18 19 20
000
FTUS46 KSTO 201548 AAA
TAFMHR
TAF AMD
KMHR 201548Z 2016/2112 14018G25KT P6SM -RA BKN015 OVC030
     FM210200 16028G38KT P6SM -RA OVC025=

USA.gov is the U.S. government's official web portal to all federal, state and local government web resources and services.